sensor_id;sensor_type;location;lat;lon;timestamp;pressure;altitude;pressure_sealevel;temperature;humidity
12694;BME280;6411;58.190;12.720;2023-02-02T00:01:54;61551.13;;;-0.01;100.00
12694;BME280;6411;58.190;12.720;2023-02-02T00:04:22;61548.94;;;-0.08;100.00
12694;BME280;6411;58.190;12.720;2023-02-02T00:06:48;61537.06;;;-0.12;100.00
12694;BME280;6411;58.190;12.720;2023-02-02T00:09:15;61549.56;;;-0.03;100.00
12694;BME280;6411;58.190;12.720;2023-02-02T00:11:43;61550.00;;;-0.07;100.00
12694;BME280;6411;58.190;12.720;2023-02-02T00:14:09;61545.34;;;-0.09;100.00
12694;BME280;6411;58.190;12.720;2023-02-02T00:16:46;61525.47;;;-0.28;100.00
12694;BME280;6411;58.190;12.720;2023-02-02T00:19:16;61511.38;;;-0.42;100.00
12694;BME280;6411;58.190;12.720;2023-02-02T00:21:42;61494.25;;;-0.53;100.00
12694;BME280;6411;58.190;12.720;2023-02-02T00:24:10;61496.16;;;-0.59;100.00
12694;BME280;6411;58.190;12.720;2023-02-02T00:26:37;61494.13;;;-0.58;100.00
12694;BME280;6411;58.190;12.720;2023-02-02T00:29:05;61485.81;;;-0.64;100.00
12694;BME280;6411;58.190;12.720;2023-02-02T00:31:30;61469.09;;;-0.80;100.00
12694;BME280;6411;58.190;12.720;2023-02-02T00:33:56;61466.50;;;-0.82;100.00
12694;BME280;6411;58.190;12.720;2023-02-02T00:36:21;61443.53;;;-1.04;100.00
12694;BME280;6411;58.190;12.720;2023-02-02T00:38:48;61454.94;;;-0.96;100.00
12694;BME280;6411;58.190;12.720;2023-02-02T00:41:14;61439.88;;;-1.08;100.00
12694;BME280;6411;58.190;12.720;2023-02-02T00:43:40;61434.59;;;-1.16;100.00
12694;BME280;6411;58.190;12.720;2023-02-02T00:46:05;61432.97;;;-1.20;100.00
12694;BME280;6411;58.190;12.720;2023-02-02T00:48:33;61411.72;;;-1.33;100.00
12694;BME280;6411;58.190;12.720;2023-02-02T00:50:59;61420.44;;;-1.32;100.00
12694;BME280;6411;58.190;12.720;2023-02-02T00:53:26;61403.28;;;-1.46;100.00
12694;BME280;6411;58.190;12.720;2023-02-02T00:55:51;61403.84;;;-1.43;100.00
12694;BME280;6411;58.190;12.720;2023-02-02T00:58:17;61401.75;;;-1.45;100.00
12694;BME280;6411;58.190;12.720;2023-02-02T01:00:42;61402.28;;;-1.44;100.00
12694;BME280;6411;58.190;12.720;2023-02-02T01:03:08;61408.53;;;-1.38;100.00
12694;BME280;6411;58.190;12.720;2023-02-02T01:05:34;61411.16;;;-1.36;100.00
12694;BME280;6411;58.190;12.720;2023-02-02T01:07:59;61427.28;;;-1.23;100.00
12694;BME280;6411;58.190;12.720;2023-02-02T01:10:25;61427.22;;;-1.25;100.00
12694;BME280;6411;58.190;12.720;2023-02-02T01:12:52;61432.44;;;-1.20;100.00
12694;BME280;6411;58.190;12.720;2023-02-02T01:15:17;61441.31;;;-1.12;100.00
12694;BME280;6411;58.190;12.720;2023-02-02T01:17:43;61442.38;;;-1.10;100.00
12694;BME280;6411;58.190;12.720;2023-02-02T01:20:16;61428.91;;;-1.19;100.00
12694;BME280;6411;58.190;12.720;2023-02-02T01:22:41;61433.09;;;-1.15;100.00
12694;BME280;6411;58.190;12.720;2023-02-02T01:25:07;61416.91;;;-1.30;100.00
12694;BME280;6411;58.190;12.720;2023-02-02T01:27:33;61442.88;;;-1.10;100.00
12694;BME280;6411;58.190;12.720;2023-02-02T01:29:58;61442.38;;;-1.10;100.00
12694;BME280;6411;58.190;12.720;2023-02-02T01:32:24;61441.91;;;-1.08;100.00
12694;BME280;6411;58.190;12.720;2023-02-02T01:34:49;61446.03;;;-1.07;100.00
12694;BME280;6411;58.190;12.720;2023-02-02T01:37:15;61435.28;;;-1.07;100.00
12694;BME280;6411;58.190;12.720;2023-02-02T01:39:40;61446.06;;;-1.04;100.00
12694;BME280;6411;58.190;12.720;2023-02-02T01:42:20;61445.63;;;-1.02;100.00
12694;BME280;6411;58.190;12.720;2023-02-02T01:45:12;61442.94;;;-1.07;100.00
12694;BME280;6411;58.190;12.720;2023-02-02T01:47:42;61436.22;;;-1.12;100.00
12694;BME280;6411;58.190;12.720;2023-02-02T01:50:09;61436.69;;;-1.14;100.00
12694;BME280;6411;58.190;12.720;2023-02-02T01:52:36;61443.97;;;-1.06;100.00
12694;BME280;6411;58.190;12.720;2023-02-02T01:55:06;61428.91;;;-1.19;100.00
12694;BME280;6411;58.190;12.720;2023-02-02T01:57:37;61421.13;;;-1.24;100.00
12694;BME280;6411;58.190;12.720;2023-02-02T02:00:08;61420.44;;;-1.32;100.00
12694;BME280;6411;58.190;12.720;2023-02-02T02:02:34;61414.28;;;-1.33;100.00
12694;BME280;6411;58.190;12.720;2023-02-02T02:05:06;61423.16;;;-1.24;100.00
12694;BME280;6411;58.190;12.720;2023-02-02T02:07:32;61433.50;;;-1.19;100.00
12694;BME280;6411;58.190;12.720;2023-02-02T02:09:58;61431.00;;;-1.17;100.00
12694;BME280;6411;58.190;12.720;2023-02-02T02:12:23;61424.75;;;-1.23;100.00
12694;BME280;6411;58.190;12.720;2023-02-02T02:14:50;61435.63;;;-1.15;100.00
12694;BME280;6411;58.190;12.720;2023-02-02T02:17:47;61434.06;;;-1.16;100.00
12694;BME280;6411;58.190;12.720;2023-02-02T02:32:25;61418.00;;;-1.27;100.00
12694;BME280;6411;58.190;12.720;2023-02-02T02:37:43;61440.31;;;-1.10;100.00
12694;BME280;6411;58.190;12.720;2023-02-02T02:43:17;61433.09;;;-1.15;100.00
12694;BME280;6411;58.190;12.720;2023-02-02T02:45:46;61418.34;;;-1.34;100.00
12694;BME280;6411;58.190;12.720;2023-02-02T02:48:12;61421.59;;;-1.26;100.00
12694;BME280;6411;58.190;12.720;2023-02-02T02:50:37;61418.88;;;-1.33;100.00
12694;BME280;6411;58.190;12.720;2023-02-02T02:53:12;61416.38;;;-1.31;100.00
12694;BME280;6411;58.190;12.720;2023-02-02T02:55:53;61416.91;;;-1.30;100.00
12694;BME280;6411;58.190;12.720;2023-02-02T02:59:33;61411.16;;;-1.36;100.00
12694;BME280;6411;58.190;12.720;2023-02-02T03:01:37;61399.78;;;-1.42;100.00
12694;BME280;6411;58.190;12.720;2023-02-02T03:04:17;61395.44;;;-1.53;100.00
12694;BME280;6411;58.190;12.720;2023-02-02T03:07:28;61397.00;;;-1.52;100.00
12694;BME280;6411;58.190;12.720;2023-02-02T03:09:59;61395.41;;;-1.56;100.00
12694;BME280;6411;58.190;12.720;2023-02-02T03:12:26;61392.78;;;-1.58;100.00
12694;BME280;6411;58.190;12.720;2023-02-02T03:14:52;61391.31;;;-1.55;100.00
12694;BME280;6411;58.190;12.720;2023-02-02T03:17:17;61381.94;;;-1.64;100.00
12694;BME280;6411;58.190;12.720;2023-02-02T03:19:43;61363.75;;;-1.79;100.00
12694;BME280;6411;58.190;12.720;2023-02-02T03:22:08;61361.06;;;-1.84;100.00
12694;BME280;6411;58.190;12.720;2023-02-02T03:24:34;61339.75;;;-2.02;100.00
12694;BME280;6411;58.190;12.720;2023-02-02T03:26:59;61352.59;;;-1.97;100.00
12694;BME280;6411;58.190;12.720;2023-02-02T03:29:26;61338.69;;;-2.03;100.00
12694;BME280;6411;58.190;12.720;2023-02-02T03:31:52;61337.13;;;-2.04;100.00
12694;BME280;6411;58.190;12.720;2023-02-02T03:34:18;61350.47;;;-2.01;100.00
12694;BME280;6411;58.190;12.720;2023-02-02T03:36:43;61341.66;;;-2.07;100.00
12694;BME280;6411;58.190;12.720;2023-02-02T03:39:09;61324.97;;;-2.23;100.00
12694;BME280;6411;58.190;12.720;2023-02-02T03:41:34;61308.88;;;-2.37;100.00
12694;BME280;6411;58.190;12.720;2023-02-02T03:43:59;61293.28;;;-2.49;100.00
12694;BME280;6411;58.190;12.720;2023-02-02T03:46:25;61301.59;;;-2.41;100.00
12694;BME280;6411;58.190;12.720;2023-02-02T03:48:50;61297.50;;;-2.43;100.00
12694;BME280;6411;58.190;12.720;2023-02-02T03:51:16;61297.31;;;-2.50;100.00
12694;BME280;6411;58.190;12.720;2023-02-02T03:53:42;61312.56;;;-2.31;100.00
12694;BME280;6411;58.190;12.720;2023-02-02T03:56:14;61309.97;;;-2.33;100.00
12694;BME280;6411;58.190;12.720;2023-02-02T03:58:40;61326.53;;;-2.22;100.00
12694;BME280;6411;58.190;12.720;2023-02-02T04:01:09;61319.34;;;-2.24;100.00
12694;BME280;6411;58.190;12.720;2023-02-02T04:03:35;61327.56;;;-2.21;100.00
12694;BME280;6411;58.190;12.720;2023-02-02T04:06:01;61304.28;;;-2.36;100.00
12694;BME280;6411;58.190;12.720;2023-02-02T04:08:27;61309.97;;;-2.33;100.00
12694;BME280;6411;58.190;12.720;2023-02-02T04:10:53;61294.84;;;-2.48;100.00
12694;BME280;6411;58.190;12.720;2023-02-02T04:13:18;61318.13;;;-2.33;100.00
12694;BME280;6411;58.190;12.720;2023-02-02T04:15:44;61312.44;;;-2.36;100.00
12694;BME280;6411;58.190;12.720;2023-02-02T04:18:09;61310.88;;;-2.37;100.00
12694;BME280;6411;58.190;12.720;2023-02-02T04:20:34;61321.78;;;-2.29;100.00
12694;BME280;6411;58.190;12.720;2023-02-02T04:23:00;61335.91;;;-2.13;100.00
12694;BME280;6411;58.190;12.720;2023-02-02T04:25:25;61323.50;;;-2.20;100.00
12694;BME280;6411;58.190;12.720;2023-02-02T04:27:51;61304.63;;;-2.43;100.00
12694;BME280;6411;58.190;12.720;2023-02-02T04:30:17;61291.66;;;-2.53;100.00
12694;BME280;6411;58.190;12.720;2023-02-02T04:32:44;61278.09;;;-2.66;100.00
12694;BME280;6411;58.190;12.720;2023-02-02T04:35:10;61258.41;;;-2.80;100.00
12694;BME280;6411;58.190;12.720;2023-02-02T04:37:35;61260.38;;;-2.83;100.00
12694;BME280;6411;58.190;12.720;2023-02-02T04:40:00;61252.63;;;-2.88;100.00
12694;BME280;6411;58.190;12.720;2023-02-02T04:42:26;61251.47;;;-2.94;100.00
12694;BME280;6411;58.190;12.720;2023-02-02T04:44:51;61245.19;;;-3.00;100.00
12694;BME280;6411;58.190;12.720;2023-02-02T04:47:17;61234.38;;;-3.06;100.00
12694;BME280;6411;58.190;12.720;2023-02-02T04:49:42;61229.59;;;-3.15;100.00
12694;BME280;6411;58.190;12.720;2023-02-02T04:52:09;61221.94;;;-3.15;100.00
12694;BME280;6411;58.190;12.720;2023-02-02T04:54:35;61207.81;;;-3.31;100.00
12694;BME280;6411;58.190;12.720;2023-02-02T04:57:01;61205.22;;;-3.34;100.00
12694;BME280;6411;58.190;12.720;2023-02-02T04:59:27;61201.56;;;-3.38;100.00
12694;BME280;6411;58.190;12.720;2023-02-02T05:01:57;61196.88;;;-3.42;100.00
12694;BME280;6411;58.190;12.720;2023-02-02T05:04:23;61192.66;;;-3.49;100.00
12694;BME280;6411;58.190;12.720;2023-02-02T05:06:48;61191.16;;;-3.48;100.00
12694;BME280;6411;58.190;12.720;2023-02-02T05:09:14;61186.97;;;-3.52;100.00
12694;BME280;6411;58.190;12.720;2023-02-02T05:11:39;61186.34;;;-3.57;100.00
12694;BME280;6411;58.190;12.720;2023-02-02T05:14:08;61166.03;;;-3.77;100.00
12694;BME280;6411;58.190;12.720;2023-02-02T05:16:35;61180.09;;;-3.63;100.00
12694;BME280;6411;58.190;12.720;2023-02-02T05:19:00;61164.53;;;-3.76;100.00
12694;BME280;6411;58.190;12.720;2023-02-02T05:21:26;61166.69;;;-3.71;100.00
12694;BME280;6411;58.190;12.720;2023-02-02T05:23:52;61173.84;;;-3.69;100.00
12694;BME280;6411;58.190;12.720;2023-02-02T05:26:22;61156.34;;;-3.79;100.00
12694;BME280;6411;58.190;12.720;2023-02-02T05:28:49;61161.41;;;-3.79;100.00
12694;BME280;6411;58.190;12.720;2023-02-02T05:31:15;61156.66;;;-3.86;100.00
12694;BME280;6411;58.190;12.720;2023-02-02T05:33:41;61149.50;;;-3.88;100.00
12694;BME280;6411;58.190;12.720;2023-02-02T05:36:06;61152.13;;;-3.85;100.00
12694;BME280;6411;58.190;12.720;2023-02-02T05:38:32;61150.56;;;-3.87;100.00
12694;BME280;6411;58.190;12.720;2023-02-02T05:40:58;61148.94;;;-3.91;100.00
12694;BME280;6411;58.190;12.720;2023-02-02T05:43:25;61162.94;;;-3.80;100.00
12694;BME280;6411;58.190;12.720;2023-02-02T05:45:51;61135.44;;;-4.01;100.00
12694;BME280;6411;58.190;12.720;2023-02-02T05:48:16;61156.16;;;-3.86;100.00
12694;BME280;6411;58.190;12.720;2023-02-02T05:50:43;61145.31;;;-3.92;100.00
12694;BME280;6411;58.190;12.720;2023-02-02T05:53:12;61142.63;;;-3.99;100.00
12694;BME280;6411;58.190;12.720;2023-02-02T05:55:38;61140.53;;;-4.01;100.00
12694;BME280;6411;58.190;12.720;2023-02-02T05:58:03;61125.50;;;-4.13;100.00
12694;BME280;6411;58.190;12.720;2023-02-02T06:00:29;61123.50;;;-4.13;100.00
12694;BME280;6411;58.190;12.720;2023-02-02T06:02:54;61117.66;;;-4.23;100.00
12694;BME280;6411;58.190;12.720;2023-02-02T06:05:20;61110.75;;;-4.35;100.00
12694;BME280;6411;58.190;12.720;2023-02-02T06:07:45;61110.97;;;-4.25;100.00
12694;BME280;6411;58.190;12.720;2023-02-02T06:10:11;61108.78;;;-4.32;100.00
12694;BME280;6411;58.190;12.720;2023-02-02T06:12:36;61117.66;;;-4.23;100.00
12694;BME280;6411;58.190;12.720;2023-02-02T06:15:02;61098.13;;;-4.32;100.00
12694;BME280;6411;58.190;12.720;2023-02-02T06:17:28;61102.53;;;-4.38;100.00
12694;BME280;6411;58.190;12.720;2023-02-02T06:19:53;61098.38;;;-4.42;100.00
12694;BME280;6411;58.190;12.720;2023-02-02T06:22:18;61094.28;;;-4.43;100.00
12694;BME280;6411;58.190;12.720;2023-02-02T06:24:44;61094.22;;;-4.46;100.00
12694;BME280;6411;58.190;12.720;2023-02-02T06:27:09;61103.06;;;-4.37;100.00
12694;BME280;6411;58.190;12.720;2023-02-02T06:29:35;61082.31;;;-4.55;100.00
12694;BME280;6411;58.190;12.720;2023-02-02T06:32:00;61094.22;;;-4.46;100.00
12694;BME280;6411;58.190;12.720;2023-02-02T06:34:26;61094.16;;;-4.48;100.00
12694;BME280;6411;58.190;12.720;2023-02-02T06:36:51;61067.16;;;-4.72;100.00
12694;BME280;6411;58.190;12.720;2023-02-02T06:39:17;61075.56;;;-4.62;100.00
12694;BME280;6411;58.190;12.720;2023-02-02T06:41:42;61075.09;;;-4.60;100.00
12694;BME280;6411;58.190;12.720;2023-02-02T06:44:12;61068.22;;;-4.71;100.00
12694;BME280;6411;58.190;12.720;2023-02-02T06:46:38;61069.25;;;-4.70;100.00
12694;BME280;6411;58.190;12.720;2023-02-02T06:49:04;61068.78;;;-4.68;100.00
12694;BME280;6411;58.190;12.720;2023-02-02T06:51:29;61065.09;;;-4.74;100.00
12694;BME280;6411;58.190;12.720;2023-02-02T06:53:55;61053.38;;;-4.76;100.00
12694;BME280;6411;58.190;12.720;2023-02-02T06:56:20;61055.41;;;-4.76;100.00
12694;BME280;6411;58.190;12.720;2023-02-02T06:58:47;61052.75;;;-4.81;100.00
12694;BME280;6411;58.190;12.720;2023-02-02T07:01:12;61058.44;;;-4.76;100.00
12694;BME280;6411;58.190;12.720;2023-02-02T07:03:39;61056.88;;;-4.77;100.00
12694;BME280;6411;58.190;12.720;2023-02-02T07:06:16;61056.88;;;-4.77;100.00
12694;BME280;6411;58.190;12.720;2023-02-02T07:08:42;61057.41;;;-4.77;100.00
12694;BME280;6411;58.190;12.720;2023-02-02T07:11:08;61059.88;;;-4.79;100.00
12694;BME280;6411;58.190;12.720;2023-02-02T07:13:34;61057.28;;;-4.82;100.00
12694;BME280;6411;58.190;12.720;2023-02-02T07:15:59;61064.50;;;-4.77;100.00
12694;BME280;6411;58.190;12.720;2023-02-02T07:18:25;61055.78;;;-4.81;100.00
12694;BME280;6411;58.190;12.720;2023-02-02T07:20:50;61063.53;;;-4.76;100.00
12694;BME280;6411;58.190;12.720;2023-02-02T07:23:16;61061.50;;;-4.75;100.00
12694;BME280;6411;58.190;12.720;2023-02-02T07:25:41;61057.81;;;-4.81;100.00
12694;BME280;6411;58.190;12.720;2023-02-02T07:28:07;61053.66;;;-4.85;100.00
12694;BME280;6411;58.190;12.720;2023-02-02T07:30:33;61068.34;;;-4.66;100.00
12694;BME280;6411;58.190;12.720;2023-02-02T07:32:58;61067.31;;;-4.67;100.00
12694;BME280;6411;58.190;12.720;2023-02-02T07:35:24;61069.25;;;-4.70;100.00
12694;BME280;6411;58.190;12.720;2023-02-02T07:37:51;61063.13;;;-4.71;100.00
12694;BME280;6411;58.190;12.720;2023-02-02T07:40:18;61061.06;;;-4.73;100.00
12694;BME280;6411;58.190;12.720;2023-02-02T07:42:45;61059.50;;;-4.75;100.00
12694;BME280;6411;58.190;12.720;2023-02-02T07:45:11;61063.13;;;-4.71;100.00
12694;BME280;6411;58.190;12.720;2023-02-02T07:47:37;61067.69;;;-4.72;100.00
12694;BME280;6411;58.190;12.720;2023-02-02T07:50:02;61061.06;;;-4.73;100.00
12694;BME280;6411;58.190;12.720;2023-02-02T07:52:28;61064.56;;;-4.75;100.00
12694;BME280;6411;58.190;12.720;2023-02-02T07:54:54;61082.25;;;-4.58;100.00
12694;BME280;6411;58.190;12.720;2023-02-02T07:57:19;61073.59;;;-4.59;100.00
12694;BME280;6411;58.190;12.720;2023-02-02T07:59:45;61086.00;;;-4.49;100.00
12694;BME280;6411;58.190;12.720;2023-02-02T08:02:11;61083.81;;;-4.56;100.00
12694;BME280;6411;58.190;12.720;2023-02-02T08:04:36;61083.94;;;-4.51;100.00
12694;BME280;6411;58.190;12.720;2023-02-02T08:07:02;61101.00;;;-4.39;100.00
12694;BME280;6411;58.190;12.720;2023-02-02T08:09:27;61104.63;;;-4.36;100.00
12694;BME280;6411;58.190;12.720;2023-02-02T08:11:53;61103.59;;;-4.37;100.00
12694;BME280;6411;58.190;12.720;2023-02-02T08:14:19;61086.47;;;-4.51;100.00
12694;BME280;6411;58.190;12.720;2023-02-02T08:16:44;61084.34;;;-4.56;100.00
12694;BME280;6411;58.190;12.720;2023-02-02T08:19:10;61104.63;;;-4.36;100.00
12694;BME280;6411;58.190;12.720;2023-02-02T08:21:35;61108.31;;;-4.30;100.00
12694;BME280;6411;58.190;12.720;2023-02-02T08:24:02;61117.13;;;-4.24;100.00
12694;BME280;6411;58.190;12.720;2023-02-02T08:26:30;61114.06;;;-4.24;100.00
12694;BME280;6411;58.190;12.720;2023-02-02T08:29:01;61120.22;;;-4.21;100.00
12694;BME280;6411;58.190;12.720;2023-02-02T08:31:33;61132.78;;;-4.06;100.00
12694;BME280;6411;58.190;12.720;2023-02-02T08:33:58;61165.13;;;-3.73;100.00
12694;BME280;6411;58.190;12.720;2023-02-02T08:36:26;61187.97;;;-3.53;100.00
12694;BME280;6411;58.190;12.720;2023-02-02T08:38:52;61174.38;;;-3.69;100.00
12694;BME280;6411;58.190;12.720;2023-02-02T08:41:20;61170.72;;;-3.72;100.00
12694;BME280;6411;58.190;12.720;2023-02-02T08:43:46;61201.50;;;-3.40;100.00
12694;BME280;6411;58.190;12.720;2023-02-02T08:46:13;61247.94;;;-2.93;100.00
12694;BME280;6411;58.190;12.720;2023-02-02T08:48:39;61218.22;;;-3.21;100.00
12694;BME280;6411;58.190;12.720;2023-02-02T08:51:06;61460.69;;;-0.90;100.00
12694;BME280;6411;58.190;12.720;2023-02-02T08:53:32;61603.31;;;0.44;100.00
12694;BME280;6411;58.190;12.720;2023-02-02T08:58:23;61670.84;;;1.11;100.00
12694;BME280;6411;58.190;12.720;2023-02-02T09:00:49;61612.25;;;0.55;100.00
12694;BME280;6411;58.190;12.720;2023-02-02T09:03:15;61509.75;;;-0.46;100.00
12694;BME280;6411;58.190;12.720;2023-02-02T09:05:41;61435.56;;;-1.17;100.00
12694;BME280;6411;58.190;12.720;2023-02-02T09:08:06;61440.28;;;-1.13;100.00
12694;BME280;6411;58.190;12.720;2023-02-02T09:10:34;61575.59;;;0.18;100.00
12694;BME280;6411;58.190;12.720;2023-02-02T09:13:00;61601.38;;;0.50;100.00
12694;BME280;6411;58.190;12.720;2023-02-02T09:15:26;61608.28;;;0.61;100.00
12694;BME280;6411;58.190;12.720;2023-02-02T09:17:51;61718.00;;;1.59;100.00
12694;BME280;6411;58.190;12.720;2023-02-02T09:20:17;61867.34;;;3.02;100.00
12694;BME280;6411;58.190;12.720;2023-02-02T09:22:42;61949.19;;;3.81;100.00
12694;BME280;6411;58.190;12.720;2023-02-02T09:25:08;61997.88;;;4.22;100.00
12694;BME280;6411;58.190;12.720;2023-02-02T09:27:37;62029.97;;;4.55;100.00
12694;BME280;6411;58.190;12.720;2023-02-02T09:30:04;61945.53;;;3.80;100.00
12694;BME280;6411;58.190;12.720;2023-02-02T09:32:29;62018.00;;;4.49;100.00
12694;BME280;6411;58.190;12.720;2023-02-02T09:34:55;62024.66;;;4.48;100.00
12694;BME280;6411;58.190;12.720;2023-02-02T09:37:20;62062.06;;;4.89;100.00
12694;BME280;6411;58.190;12.720;2023-02-02T09:39:45;62124.53;;;5.46;100.00
12694;BME280;6411;58.190;12.720;2023-02-02T09:42:26;62101.41;;;5.24;100.00
12694;BME280;6411;58.190;12.720;2023-02-02T09:45:10;62139.84;;;5.63;100.00
12694;BME280;6411;58.190;12.720;2023-02-02T09:50:48;62196.59;;;6.15;100.00
12694;BME280;6411;58.190;12.720;2023-02-02T09:55:50;62223.53;;;6.45;100.00
12694;BME280;6411;58.190;12.720;2023-02-02T09:58:23;62257.06;;;6.70;100.00
12694;BME280;6411;58.190;12.720;2023-02-02T10:03:23;62344.53;;;7.56;100.00
12694;BME280;6411;58.190;12.720;2023-02-02T10:08:52;62113.50;;;5.35;100.00
12694;BME280;6411;58.190;12.720;2023-02-02T10:11:23;62090.84;;;5.11;100.00
12694;BME280;6411;58.190;12.720;2023-02-02T10:13:53;62054.66;;;4.79;100.00
12694;BME280;6411;58.190;12.720;2023-02-02T10:16:23;61964.72;;;3.86;100.00
12694;BME280;6411;58.190;12.720;2023-02-02T10:19:09;61911.28;;;3.39;100.00
12694;BME280;6411;58.190;12.720;2023-02-02T10:21:41;61680.28;;;1.21;100.00
12694;BME280;6411;58.190;12.720;2023-02-02T10:24:28;61677.59;;;1.15;100.00
12694;BME280;6411;58.190;12.720;2023-02-02T10:26:56;61762.91;;;1.95;100.00
12694;BME280;6411;58.190;12.720;2023-02-02T10:29:28;61659.13;;;0.90;100.00
12694;BME280;6411;58.190;12.720;2023-02-02T10:32:24;61714.25;;;1.51;100.00
12694;BME280;6411;58.190;12.720;2023-02-02T10:35:02;61844.75;;;2.78;100.00
12694;BME280;6411;58.190;12.720;2023-02-02T10:37:36;61991.06;;;4.16;100.00
12694;BME280;6411;58.190;12.720;2023-02-02T10:46:05;61897.13;;;3.26;100.00
12694;BME280;6411;58.190;12.720;2023-02-02T10:48:35;62049.34;;;4.72;100.00
12694;BME280;6411;58.190;12.720;2023-02-02T10:51:05;62097.69;;;5.18;100.00
12694;BME280;6411;58.190;12.720;2023-02-02T10:53:35;62236.03;;;6.50;100.00
12694;BME280;6411;58.190;12.720;2023-02-02T10:56:06;62298.22;;;7.14;100.00
12694;BME280;6411;58.190;12.720;2023-02-02T10:59:04;62624.16;;;10.25;100.00
12694;BME280;6411;58.190;12.720;2023-02-02T11:01:30;62555.56;;;9.62;100.00
12694;BME280;6411;58.190;12.720;2023-02-02T11:03:55;62508.50;;;9.12;100.00
12694;BME280;6411;58.190;12.720;2023-02-02T11:06:39;62586.63;;;9.86;100.00
12694;BME280;6411;58.190;12.720;2023-02-02T11:09:16;62610.34;;;10.06;100.00
12694;BME280;6411;58.190;12.720;2023-02-02T11:11:45;62653.22;;;10.52;100.00
12694;BME280;6411;58.190;12.720;2023-02-02T11:14:17;62480.50;;;8.83;100.00
12694;BME280;6411;58.190;12.720;2023-02-02T11:16:45;62689.59;;;10.82;100.00
12694;BME280;6411;58.190;12.720;2023-02-02T11:21:56;62856.78;;;12.46;100.00
12694;BME280;6411;58.190;12.720;2023-02-02T11:24:47;63109.06;;;14.85;100.00
12694;BME280;6411;58.190;12.720;2023-02-02T11:27:25;62997.09;;;13.74;100.00
12694;BME280;6411;58.190;12.720;2023-02-02T11:29:54;63117.03;;;14.95;100.00
12694;BME280;6411;58.190;12.720;2023-02-02T11:32:31;63054.94;;;14.31;100.00
12694;BME280;6411;58.190;12.720;2023-02-02T11:35:21;63083.03;;;14.57;100.00
12694;BME280;6411;58.190;12.720;2023-02-02T11:37:57;63106.94;;;14.83;100.00
12694;BME280;6411;58.190;12.720;2023-02-02T11:40:26;63016.25;;;13.97;100.00
12694;BME280;6411;58.190;12.720;2023-02-02T11:42:54;63069.25;;;14.44;100.00
12694;BME280;6411;58.190;12.720;2023-02-02T11:45:35;63006.69;;;13.88;100.00
12694;BME280;6411;58.190;12.720;2023-02-02T11:48:12;63057.56;;;14.31;100.00
12694;BME280;6411;58.190;12.720;2023-02-02T11:50:44;62954.25;;;13.38;100.00
12694;BME280;6411;58.190;12.720;2023-02-02T11:53:23;63031.13;;;14.13;100.00
12694;BME280;6411;58.190;12.720;2023-02-02T11:55:50;62967.47;;;13.51;100.00
12694;BME280;6411;58.190;12.720;2023-02-02T11:58:19;63095.75;;;14.70;100.00
12694;BME280;6411;58.190;12.720;2023-02-02T12:00:54;63213.09;;;15.86;100.00
12694;BME280;6411;58.190;12.720;2023-02-02T12:03:29;63307.16;;;16.77;100.00
12694;BME280;6411;58.190;12.720;2023-02-02T12:05:55;63160.09;;;15.40;100.00
12694;BME280;6411;58.190;12.720;2023-02-02T12:08:20;63193.44;;;15.64;100.00
12694;BME280;6411;58.190;12.720;2023-02-02T12:10:59;63256.13;;;16.29;100.00
12694;BME280;6411;58.190;12.720;2023-02-02T12:16:50;63338.53;;;17.09;100.00
12694;BME280;6411;58.190;12.720;2023-02-02T12:22:24;63324.69;;;16.94;100.00
12694;BME280;6411;58.190;12.720;2023-02-02T12:27:49;63482.69;;;18.45;100.00
12694;BME280;6411;58.190;12.720;2023-02-02T12:33:00;63491.66;;;18.46;100.00
12694;BME280;6411;58.190;12.720;2023-02-02T12:38:30;63439.00;;;17.99;100.00
12694;BME280;6411;58.190;12.720;2023-02-02T12:43:46;63344.34;;;17.10;100.00
12694;BME280;6411;58.190;12.720;2023-02-02T12:49:00;63312.44;;;16.80;100.00
12694;BME280;6411;58.190;12.720;2023-02-02T12:54:37;63281.09;;;16.47;100.00
12694;BME280;6411;58.190;12.720;2023-02-02T12:57:21;63372.00;;;17.38;100.00
12694;BME280;6411;58.190;12.720;2023-02-02T13:05:43;63237.50;;;16.06;100.00
12694;BME280;6411;58.190;12.720;2023-02-02T13:08:25;63025.25;;;14.05;100.00
12694;BME280;6411;58.190;12.720;2023-02-02T13:10:56;62951.06;;;13.35;100.00
12694;BME280;6411;58.190;12.720;2023-02-02T13:13:30;63033.75;;;14.16;100.00
12694;BME280;6411;58.190;12.720;2023-02-02T13:16:04;63006.75;;;13.90;100.00
12694;BME280;6411;58.190;12.720;2023-02-02T13:18:51;62890.19;;;12.80;100.00
12694;BME280;6411;58.190;12.720;2023-02-02T13:21:20;62821.38;;;12.14;100.00
12694;BME280;6411;58.190;12.720;2023-02-02T13:24:06;62466.84;;;8.72;100.00
12694;BME280;6411;58.190;12.720;2023-02-02T13:26:40;62251.81;;;6.65;100.00
12694;BME280;6411;58.190;12.720;2023-02-02T13:36:38;61881.97;;;3.14;100.00
12694;BME280;6411;58.190;12.720;2023-02-02T13:39:16;61816.44;;;2.51;100.00
12694;BME280;6411;58.190;12.720;2023-02-02T13:41:43;61882.91;;;3.10;100.00
12694;BME280;6411;58.190;12.720;2023-02-02T13:44:34;62059.94;;;4.87;100.00
12694;BME280;6411;58.190;12.720;2023-02-02T13:47:08;62012.66;;;4.39;100.00
12694;BME280;6411;58.190;12.720;2023-02-02T13:49:37;61895.66;;;3.29;100.00
12694;BME280;6411;58.190;12.720;2023-02-02T13:52:42;62214.09;;;6.39;100.00
12694;BME280;6411;58.190;12.720;2023-02-02T14:01:04;62327.19;;;7.42;100.00
12694;BME280;6411;58.190;12.720;2023-02-02T14:03:35;62007.88;;;4.32;100.00
12694;BME280;6411;58.190;12.720;2023-02-02T14:06:10;61817.44;;;2.50;100.00
12694;BME280;6411;58.190;12.720;2023-02-02T14:08:36;61750.91;;;1.86;100.00
12694;BME280;6411;58.190;12.720;2023-02-02T14:11:07;61706.81;;;1.39;100.00
12694;BME280;6411;58.190;12.720;2023-02-02T14:13:45;61707.50;;;1.47;100.00
12694;BME280;6411;58.190;12.720;2023-02-02T14:18:57;61726.94;;;1.68;100.00
12694;BME280;6411;58.190;12.720;2023-02-02T14:26:43;61797.09;;;2.35;100.00
12694;BME280;6411;58.190;12.720;2023-02-02T14:32:00;61768.59;;;1.98;100.00
12694;BME280;6411;58.190;12.720;2023-02-02T14:34:36;61698.66;;;1.41;100.00
12694;BME280;6411;58.190;12.720;2023-02-02T14:45:37;61610.75;;;0.56;100.00